sensor_id;sensor_type;location;lat;lon;timestamp;P1;durP1;ratioP1;P2;durP2;ratioP2
38312;SDS011;24114;52.260;6.714;2023-08-21T00:00:12;2.90;;;0.77;;
38312;SDS011;24114;52.260;6.714;2023-08-21T00:02:40;2.35;;;0.50;;
38312;SDS011;24114;52.260;6.714;2023-08-21T00:05:10;1.90;;;0.52;;
38312;SDS011;24114;52.260;6.714;2023-08-21T00:07:38;2.50;;;0.50;;
38312;SDS011;24114;52.260;6.714;2023-08-21T00:10:06;3.15;;;0.95;;
38312;SDS011;24114;52.260;6.714;2023-08-21T00:12:36;2.70;;;0.47;;
38312;SDS011;24114;52.260;6.714;2023-08-21T00:15:05;2.05;;;0.50;;
38312;SDS011;24114;52.260;6.714;2023-08-21T00:17:33;3.30;;;0.65;;
38312;SDS011;24114;52.260;6.714;2023-08-21T00:20:01;3.03;;;0.55;;
38312;SDS011;24114;52.260;6.714;2023-08-21T00:22:31;2.08;;;0.50;;
38312;SDS011;24114;52.260;6.714;2023-08-21T00:24:59;4.00;;;0.65;;
38312;SDS011;24114;52.260;6.714;2023-08-21T00:27:27;1.70;;;0.40;;
38312;SDS011;24114;52.260;6.714;2023-08-21T00:29:54;2.25;;;0.40;;
38312;SDS011;24114;52.260;6.714;2023-08-21T00:32:22;2.22;;;0.73;;
38312;SDS011;24114;52.260;6.714;2023-08-21T00:34:50;3.17;;;0.60;;
38312;SDS011;24114;52.260;6.714;2023-08-21T00:37:18;2.80;;;0.77;;
38312;SDS011;24114;52.260;6.714;2023-08-21T00:39:48;3.30;;;0.50;;
38312;SDS011;24114;52.260;6.714;2023-08-21T00:42:16;3.83;;;0.90;;
38312;SDS011;24114;52.260;6.714;2023-08-21T00:44:43;2.30;;;0.50;;
38312;SDS011;24114;52.260;6.714;2023-08-21T00:47:11;3.03;;;0.70;;
38312;SDS011;24114;52.260;6.714;2023-08-21T00:49:39;1.92;;;0.40;;
38312;SDS011;24114;52.260;6.714;2023-08-21T00:52:07;2.65;;;0.60;;
38312;SDS011;24114;52.260;6.714;2023-08-21T00:54:36;2.70;;;0.70;;
38312;SDS011;24114;52.260;6.714;2023-08-21T00:57:05;2.53;;;0.65;;
38312;SDS011;24114;52.260;6.714;2023-08-21T00:59:33;1.90;;;0.60;;
38312;SDS011;24114;52.260;6.714;2023-08-21T01:02:01;2.58;;;0.82;;
38312;SDS011;24114;52.260;6.714;2023-08-21T01:04:29;1.77;;;0.50;;
38312;SDS011;24114;52.260;6.714;2023-08-21T01:06:57;2.97;;;0.70;;
38312;SDS011;24114;52.260;6.714;2023-08-21T01:09:27;2.70;;;0.70;;
38312;SDS011;24114;52.260;6.714;2023-08-21T01:11:58;2.03;;;0.40;;
38312;SDS011;24114;52.260;6.714;2023-08-21T01:14:33;2.00;;;0.60;;
38312;SDS011;24114;52.260;6.714;2023-08-21T01:17:05;1.70;;;0.60;;
38312;SDS011;24114;52.260;6.714;2023-08-21T01:19:35;3.50;;;0.70;;
38312;SDS011;24114;52.260;6.714;2023-08-21T01:22:04;2.92;;;0.68;;
38312;SDS011;24114;52.260;6.714;2023-08-21T01:24:33;2.53;;;0.77;;
38312;SDS011;24114;52.260;6.714;2023-08-21T01:27:01;3.03;;;0.60;;
38312;SDS011;24114;52.260;6.714;2023-08-21T01:29:29;3.13;;;0.50;;
38312;SDS011;24114;52.260;6.714;2023-08-21T01:31:58;2.15;;;0.50;;
38312;SDS011;24114;52.260;6.714;2023-08-21T01:34:30;1.25;;;0.50;;
38312;SDS011;24114;52.260;6.714;2023-08-21T01:36:59;0.93;;;0.30;;
38312;SDS011;24114;52.260;6.714;2023-08-21T01:39:27;1.60;;;0.52;;
38312;SDS011;24114;52.260;6.714;2023-08-21T01:41:57;2.65;;;0.43;;
38312;SDS011;24114;52.260;6.714;2023-08-21T01:44:25;3.22;;;0.70;;
38312;SDS011;24114;52.260;6.714;2023-08-21T01:46:53;3.20;;;0.68;;
38312;SDS011;24114;52.260;6.714;2023-08-21T01:49:21;2.33;;;0.60;;
38312;SDS011;24114;52.260;6.714;2023-08-21T01:51:49;1.87;;;0.50;;
38312;SDS011;24114;52.260;6.714;2023-08-21T01:54:17;2.63;;;0.70;;
38312;SDS011;24114;52.260;6.714;2023-08-21T01:56:44;2.28;;;0.57;;
38312;SDS011;24114;52.260;6.714;2023-08-21T01:59:16;2.90;;;0.82;;
38312;SDS011;24114;52.260;6.714;2023-08-21T02:01:44;1.95;;;0.90;;
38312;SDS011;24114;52.260;6.714;2023-08-21T02:04:12;2.57;;;0.70;;
38312;SDS011;24114;52.260;6.714;2023-08-21T02:06:39;3.90;;;0.93;;
38312;SDS011;24114;52.260;6.714;2023-08-21T02:09:07;1.42;;;0.50;;
38312;SDS011;24114;52.260;6.714;2023-08-21T02:11:35;2.08;;;0.50;;
38312;SDS011;24114;52.260;6.714;2023-08-21T02:14:03;1.70;;;0.60;;
38312;SDS011;24114;52.260;6.714;2023-08-21T02:16:32;1.52;;;0.50;;
38312;SDS011;24114;52.260;6.714;2023-08-21T02:19:00;1.87;;;0.50;;
38312;SDS011;24114;52.260;6.714;2023-08-21T02:21:28;1.90;;;0.45;;
38312;SDS011;24114;52.260;6.714;2023-08-21T02:23:55;1.85;;;0.38;;
38312;SDS011;24114;52.260;6.714;2023-08-21T02:26:23;1.65;;;0.52;;
38312;SDS011;24114;52.260;6.714;2023-08-21T02:28:51;2.75;;;0.30;;
38312;SDS011;24114;52.260;6.714;2023-08-21T02:31:19;2.67;;;0.40;;
38312;SDS011;24114;52.260;6.714;2023-08-21T02:33:48;0.95;;;0.32;;
38312;SDS011;24114;52.260;6.714;2023-08-21T02:36:16;2.13;;;0.40;;
38312;SDS011;24114;52.260;6.714;2023-08-21T02:38:44;1.90;;;0.45;;
38312;SDS011;24114;52.260;6.714;2023-08-21T02:41:12;2.28;;;0.50;;
38312;SDS011;24114;52.260;6.714;2023-08-21T02:43:43;1.73;;;0.40;;
38312;SDS011;24114;52.260;6.714;2023-08-21T02:46:11;1.50;;;0.30;;
38312;SDS011;24114;52.260;6.714;2023-08-21T02:48:39;1.23;;;0.50;;
38312;SDS011;24114;52.260;6.714;2023-08-21T02:51:08;1.67;;;0.30;;
38312;SDS011;24114;52.260;6.714;2023-08-21T02:53:36;2.05;;;0.52;;
38312;SDS011;24114;52.260;6.714;2023-08-21T02:56:03;1.73;;;0.40;;
38312;SDS011;24114;52.260;6.714;2023-08-21T02:58:31;2.20;;;0.50;;
38312;SDS011;24114;52.260;6.714;2023-08-21T03:00:59;2.20;;;0.40;;
38312;SDS011;24114;52.260;6.714;2023-08-21T03:03:27;2.75;;;0.50;;
38312;SDS011;24114;52.260;6.714;2023-08-21T03:05:55;4.60;;;0.57;;
38312;SDS011;24114;52.260;6.714;2023-08-21T03:08:24;1.55;;;0.50;;
38312;SDS011;24114;52.260;6.714;2023-08-21T03:10:52;1.70;;;0.22;;
38312;SDS011;24114;52.260;6.714;2023-08-21T03:13:20;1.63;;;0.40;;
38312;SDS011;24114;52.260;6.714;2023-08-21T03:15:48;1.77;;;0.20;;
38312;SDS011;24114;52.260;6.714;2023-08-21T03:18:15;1.75;;;0.50;;
38312;SDS011;24114;52.260;6.714;2023-08-21T03:20:44;1.50;;;0.50;;
38312;SDS011;24114;52.260;6.714;2023-08-21T03:23:12;2.15;;;0.50;;
38312;SDS011;24114;52.260;6.714;2023-08-21T03:25:41;1.98;;;0.60;;
38312;SDS011;24114;52.260;6.714;2023-08-21T03:28:09;1.42;;;0.30;;
38312;SDS011;24114;52.260;6.714;2023-08-21T03:30:38;1.40;;;0.40;;
38312;SDS011;24114;52.260;6.714;2023-08-21T03:33:06;1.92;;;0.40;;
38312;SDS011;24114;52.260;6.714;2023-08-21T03:35:35;1.60;;;0.40;;
38312;SDS011;24114;52.260;6.714;2023-08-21T03:38:02;1.40;;;0.50;;
38312;SDS011;24114;52.260;6.714;2023-08-21T03:40:30;1.80;;;0.50;;
38312;SDS011;24114;52.260;6.714;2023-08-21T03:42:59;2.33;;;0.30;;
38312;SDS011;24114;52.260;6.714;2023-08-21T03:45:27;1.73;;;0.52;;
38312;SDS011;24114;52.260;6.714;2023-08-21T03:47:55;2.63;;;0.40;;
38312;SDS011;24114;52.260;6.714;2023-08-21T03:50:23;2.70;;;0.77;;
38312;SDS011;24114;52.260;6.714;2023-08-21T03:52:51;2.67;;;0.60;;
38312;SDS011;24114;52.260;6.714;2023-08-21T03:55:18;1.92;;;0.68;;
38312;SDS011;24114;52.260;6.714;2023-08-21T03:57:46;2.33;;;0.47;;
38312;SDS011;24114;52.260;6.714;2023-08-21T04:00:16;1.80;;;0.45;;
38312;SDS011;24114;52.260;6.714;2023-08-21T04:02:44;2.03;;;0.55;;
38312;SDS011;24114;52.260;6.714;2023-08-21T04:05:11;1.20;;;0.47;;
38312;SDS011;24114;52.260;6.714;2023-08-21T04:07:39;2.17;;;0.70;;
38312;SDS011;24114;52.260;6.714;2023-08-21T04:10:07;2.20;;;0.60;;
38312;SDS011;24114;52.260;6.714;2023-08-21T04:12:35;2.90;;;0.68;;
38312;SDS011;24114;52.260;6.714;2023-08-21T04:15:04;2.25;;;0.70;;
38312;SDS011;24114;52.260;6.714;2023-08-21T04:17:34;3.60;;;0.70;;
38312;SDS011;24114;52.260;6.714;2023-08-21T04:20:01;1.15;;;0.40;;
38312;SDS011;24114;52.260;6.714;2023-08-21T04:22:29;2.97;;;0.82;;
38312;SDS011;24114;52.260;6.714;2023-08-21T04:24:57;2.03;;;0.60;;
38312;SDS011;24114;52.260;6.714;2023-08-21T04:27:25;1.60;;;0.60;;
38312;SDS011;24114;52.260;6.714;2023-08-21T04:29:53;2.30;;;0.50;;
38312;SDS011;24114;52.260;6.714;2023-08-21T04:32:21;2.03;;;0.60;;
38312;SDS011;24114;52.260;6.714;2023-08-21T04:34:50;1.50;;;0.50;;
38312;SDS011;24114;52.260;6.714;2023-08-21T04:37:18;2.10;;;0.77;;
38312;SDS011;24114;52.260;6.714;2023-08-21T04:39:46;2.40;;;0.80;;
38312;SDS011;24114;52.260;6.714;2023-08-21T04:42:13;1.92;;;0.60;;
38312;SDS011;24114;52.260;6.714;2023-08-21T04:44:41;2.97;;;0.70;;
38312;SDS011;24114;52.260;6.714;2023-08-21T04:47:18;2.35;;;0.77;;
38312;SDS011;24114;52.260;6.714;2023-08-21T04:49:47;1.93;;;0.80;;
38312;SDS011;24114;52.260;6.714;2023-08-21T04:52:16;4.27;;;0.77;;
38312;SDS011;24114;52.260;6.714;2023-08-21T04:54:44;1.85;;;0.60;;
38312;SDS011;24114;52.260;6.714;2023-08-21T04:57:12;7.07;;;1.20;;
38312;SDS011;24114;52.260;6.714;2023-08-21T04:59:40;2.90;;;1.10;;
38312;SDS011;24114;52.260;6.714;2023-08-21T05:02:08;2.58;;;1.00;;
38312;SDS011;24114;52.260;6.714;2023-08-21T05:04:36;2.25;;;0.90;;
38312;SDS011;24114;52.260;6.714;2023-08-21T05:07:04;3.35;;;1.33;;
38312;SDS011;24114;52.260;6.714;2023-08-21T05:09:33;5.00;;;1.75;;
38312;SDS011;24114;52.260;6.714;2023-08-21T05:12:01;3.33;;;1.42;;
38312;SDS011;24114;52.260;6.714;2023-08-21T05:14:29;3.43;;;1.57;;
38312;SDS011;24114;52.260;6.714;2023-08-21T05:16:57;4.70;;;1.60;;
38312;SDS011;24114;52.260;6.714;2023-08-21T05:19:25;3.75;;;1.75;;
38312;SDS011;24114;52.260;6.714;2023-08-21T05:21:54;4.65;;;2.28;;
38312;SDS011;24114;52.260;6.714;2023-08-21T05:24:22;4.63;;;2.45;;
38312;SDS011;24114;52.260;6.714;2023-08-21T05:26:51;4.90;;;2.50;;
38312;SDS011;24114;52.260;6.714;2023-08-21T05:29:19;2.88;;;1.83;;
38312;SDS011;24114;52.260;6.714;2023-08-21T05:31:47;3.70;;;2.10;;
38312;SDS011;24114;52.260;6.714;2023-08-21T05:34:15;4.83;;;2.13;;
38312;SDS011;24114;52.260;6.714;2023-08-21T05:36:43;3.83;;;2.00;;
38312;SDS011;24114;52.260;6.714;2023-08-21T05:39:11;4.72;;;2.38;;
38312;SDS011;24114;52.260;6.714;2023-08-21T05:41:39;8.43;;;2.05;;
38312;SDS011;24114;52.260;6.714;2023-08-21T05:44:08;3.75;;;2.30;;
38312;SDS011;24114;52.260;6.714;2023-08-21T05:46:36;4.70;;;2.78;;
38312;SDS011;24114;52.260;6.714;2023-08-21T05:49:04;4.43;;;2.30;;
38312;SDS011;24114;52.260;6.714;2023-08-21T05:51:32;4.15;;;2.40;;
38312;SDS011;24114;52.260;6.714;2023-08-21T05:54:01;4.18;;;2.17;;
38312;SDS011;24114;52.260;6.714;2023-08-21T05:56:29;3.63;;;2.00;;
38312;SDS011;24114;52.260;6.714;2023-08-21T05:58:57;4.25;;;2.47;;
38312;SDS011;24114;52.260;6.714;2023-08-21T06:01:26;5.10;;;2.42;;
38312;SDS011;24114;52.260;6.714;2023-08-21T06:03:54;5.45;;;2.92;;
38312;SDS011;24114;52.260;6.714;2023-08-21T06:06:25;5.75;;;3.58;;
38312;SDS011;24114;52.260;6.714;2023-08-21T06:08:53;5.97;;;3.72;;
38312;SDS011;24114;52.260;6.714;2023-08-21T06:11:21;6.20;;;3.60;;
38312;SDS011;24114;52.260;6.714;2023-08-21T06:13:51;5.53;;;3.65;;
38312;SDS011;24114;52.260;6.714;2023-08-21T06:16:19;5.73;;;3.50;;
38312;SDS011;24114;52.260;6.714;2023-08-21T06:18:48;4.10;;;3.33;;
38312;SDS011;24114;52.260;6.714;2023-08-21T06:21:16;5.95;;;3.40;;
38312;SDS011;24114;52.260;6.714;2023-08-21T06:23:43;6.47;;;3.38;;
38312;SDS011;24114;52.260;6.714;2023-08-21T06:26:11;6.27;;;3.30;;
38312;SDS011;24114;52.260;6.714;2023-08-21T06:28:39;4.40;;;2.85;;
38312;SDS011;24114;52.260;6.714;2023-08-21T06:31:08;4.85;;;3.35;;
38312;SDS011;24114;52.260;6.714;2023-08-21T06:33:36;5.43;;;2.85;;
38312;SDS011;24114;52.260;6.714;2023-08-21T06:36:05;4.50;;;2.90;;
38312;SDS011;24114;52.260;6.714;2023-08-21T06:38:33;5.53;;;3.13;;
38312;SDS011;24114;52.260;6.714;2023-08-21T06:41:03;3.83;;;2.83;;
38312;SDS011;24114;52.260;6.714;2023-08-21T06:43:37;4.93;;;2.90;;
38312;SDS011;24114;52.260;6.714;2023-08-21T06:46:09;3.78;;;2.78;;
38312;SDS011;24114;52.260;6.714;2023-08-21T06:48:38;4.10;;;2.90;;
38312;SDS011;24114;52.260;6.714;2023-08-21T06:51:08;3.57;;;2.40;;
38312;SDS011;24114;52.260;6.714;2023-08-21T06:53:38;6.75;;;2.90;;
38312;SDS011;24114;52.260;6.714;2023-08-21T06:56:06;4.72;;;2.40;;
38312;SDS011;24114;52.260;6.714;2023-08-21T06:58:34;6.13;;;2.97;;
38312;SDS011;24114;52.260;6.714;2023-08-21T07:01:02;4.38;;;2.58;;
38312;SDS011;24114;52.260;6.714;2023-08-21T07:03:30;3.60;;;1.95;;
38312;SDS011;24114;52.260;6.714;2023-08-21T07:05:58;3.65;;;1.60;;
38312;SDS011;24114;52.260;6.714;2023-08-21T07:08:28;7.57;;;2.30;;
38312;SDS011;24114;52.260;6.714;2023-08-21T07:10:56;5.20;;;1.80;;
38312;SDS011;24114;52.260;6.714;2023-08-21T07:13:24;5.82;;;2.22;;
38312;SDS011;24114;52.260;6.714;2023-08-21T07:15:52;7.97;;;2.45;;
38312;SDS011;24114;52.260;6.714;2023-08-21T07:18:21;3.73;;;1.80;;
38312;SDS011;24114;52.260;6.714;2023-08-21T07:20:51;4.05;;;1.27;;
38312;SDS011;24114;52.260;6.714;2023-08-21T07:23:19;3.40;;;1.33;;
38312;SDS011;24114;52.260;6.714;2023-08-21T07:25:49;3.58;;;2.15;;
38312;SDS011;24114;52.260;6.714;2023-08-21T07:28:17;5.05;;;2.03;;
38312;SDS011;24114;52.260;6.714;2023-08-21T07:30:45;3.40;;;1.10;;
38312;SDS011;24114;52.260;6.714;2023-08-21T07:33:12;3.88;;;1.10;;
38312;SDS011;24114;52.260;6.714;2023-08-21T07:35:40;3.63;;;0.87;;
38312;SDS011;24114;52.260;6.714;2023-08-21T07:38:08;2.45;;;0.82;;
38312;SDS011;24114;52.260;6.714;2023-08-21T07:40:36;2.17;;;0.60;;
38312;SDS011;24114;52.260;6.714;2023-08-21T07:43:05;3.65;;;0.68;;
38312;SDS011;24114;52.260;6.714;2023-08-21T07:45:36;3.33;;;0.60;;
38312;SDS011;24114;52.260;6.714;2023-08-21T07:48:04;5.70;;;0.98;;
38312;SDS011;24114;52.260;6.714;2023-08-21T07:50:40;2.78;;;0.80;;
38312;SDS011;24114;52.260;6.714;2023-08-21T07:53:08;3.40;;;0.60;;
38312;SDS011;24114;52.260;6.714;2023-08-21T07:55:36;2.97;;;0.50;;
38312;SDS011;24114;52.260;6.714;2023-08-21T07:58:03;3.67;;;0.60;;
38312;SDS011;24114;52.260;6.714;2023-08-21T08:00:33;2.00;;;0.32;;
38312;SDS011;24114;52.260;6.714;2023-08-21T08:03:00;3.58;;;0.40;;
38312;SDS011;24114;52.260;6.714;2023-08-21T08:05:28;3.05;;;0.55;;
38312;SDS011;24114;52.260;6.714;2023-08-21T08:08:00;4.10;;;0.55;;
38312;SDS011;24114;52.260;6.714;2023-08-21T08:10:28;2.58;;;0.60;;
38312;SDS011;24114;52.260;6.714;2023-08-21T08:12:55;3.00;;;0.40;;
38312;SDS011;24114;52.260;6.714;2023-08-21T08:15:25;1.80;;;0.30;;
38312;SDS011;24114;52.260;6.714;2023-08-21T08:17:53;2.42;;;0.22;;
38312;SDS011;24114;52.260;6.714;2023-08-21T08:20:21;1.73;;;0.30;;
38312;SDS011;24114;52.260;6.714;2023-08-21T08:22:49;2.33;;;0.40;;
38312;SDS011;24114;52.260;6.714;2023-08-21T08:25:17;2.70;;;0.30;;
38312;SDS011;24114;52.260;6.714;2023-08-21T08:27:45;3.10;;;0.50;;
38312;SDS011;24114;52.260;6.714;2023-08-21T08:30:13;1.55;;;0.30;;
38312;SDS011;24114;52.260;6.714;2023-08-21T08:32:43;2.90;;;0.30;;
38312;SDS011;24114;52.260;6.714;2023-08-21T08:35:12;1.52;;;0.35;;
38312;SDS011;24114;52.260;6.714;2023-08-21T08:37:40;2.70;;;0.20;;
38312;SDS011;24114;52.260;6.714;2023-08-21T08:40:09;2.45;;;0.28;;
38312;SDS011;24114;52.260;6.714;2023-08-21T08:42:37;3.35;;;0.30;;
38312;SDS011;24114;52.260;6.714;2023-08-21T08:45:06;2.28;;;0.30;;
38312;SDS011;24114;52.260;6.714;2023-08-21T08:47:35;2.88;;;0.30;;
38312;SDS011;24114;52.260;6.714;2023-08-21T08:50:05;2.67;;;0.32;;
38312;SDS011;24114;52.260;6.714;2023-08-21T08:52:36;2.93;;;0.30;;
38312;SDS011;24114;52.260;6.714;2023-08-21T08:55:06;3.80;;;0.47;;
38312;SDS011;24114;52.260;6.714;2023-08-21T08:57:34;3.25;;;0.43;;
38312;SDS011;24114;52.260;6.714;2023-08-21T09:00:03;3.10;;;0.50;;
38312;SDS011;24114;52.260;6.714;2023-08-21T09:03:51;3.78;;;0.90;;
38312;SDS011;24114;52.260;6.714;2023-08-21T09:06:19;4.00;;;0.68;;
38312;SDS011;24114;52.260;6.714;2023-08-21T09:08:53;3.80;;;0.60;;
38312;SDS011;24114;52.260;6.714;2023-08-21T09:11:21;4.20;;;0.73;;
38312;SDS011;24114;52.260;6.714;2023-08-21T09:13:49;3.13;;;0.52;;
38312;SDS011;24114;52.260;6.714;2023-08-21T09:16:17;3.00;;;0.40;;
38312;SDS011;24114;52.260;6.714;2023-08-21T09:18:48;2.08;;;0.40;;
38312;SDS011;24114;52.260;6.714;2023-08-21T09:21:18;3.80;;;0.60;;
38312;SDS011;24114;52.260;6.714;2023-08-21T09:23:48;3.28;;;0.40;;
38312;SDS011;24114;52.260;6.714;2023-08-21T09:26:19;2.28;;;0.50;;
38312;SDS011;24114;52.260;6.714;2023-08-21T09:28:47;2.35;;;0.38;;
38312;SDS011;24114;52.260;6.714;2023-08-21T09:31:16;2.03;;;0.30;;
38312;SDS011;24114;52.260;6.714;2023-08-21T09:33:44;5.93;;;0.70;;
38312;SDS011;24114;52.260;6.714;2023-08-21T09:36:24;3.27;;;0.70;;
38312;SDS011;24114;52.260;6.714;2023-08-21T09:38:52;3.05;;;0.40;;
38312;SDS011;24114;52.260;6.714;2023-08-21T09:41:20;3.38;;;0.30;;
38312;SDS011;24114;52.260;6.714;2023-08-21T09:43:48;2.67;;;0.40;;
38312;SDS011;24114;52.260;6.714;2023-08-21T09:46:17;2.95;;;0.50;;
38312;SDS011;24114;52.260;6.714;2023-08-21T09:48:45;3.00;;;0.50;;
38312;SDS011;24114;52.260;6.714;2023-08-21T09:51:14;3.17;;;0.32;;
38312;SDS011;24114;52.260;6.714;2023-08-21T09:53:42;2.25;;;0.20;;
38312;SDS011;24114;52.260;6.714;2023-08-21T09:56:10;2.38;;;0.40;;
38312;SDS011;24114;52.260;6.714;2023-08-21T09:58:38;2.35;;;0.65;;
38312;SDS011;24114;52.260;6.714;2023-08-21T10:01:06;2.20;;;0.20;;
38312;SDS011;24114;52.260;6.714;2023-08-21T10:03:38;3.08;;;0.20;;
38312;SDS011;24114;52.260;6.714;2023-08-21T10:06:08;1.40;;;0.10;;
38312;SDS011;24114;52.260;6.714;2023-08-21T10:08:38;1.52;;;0.30;;
38312;SDS011;24114;52.260;6.714;2023-08-21T10:11:07;0.90;;;0.10;;
38312;SDS011;24114;52.260;6.714;2023-08-21T10:13:36;1.15;;;0.20;;
38312;SDS011;24114;52.260;6.714;2023-08-21T10:16:05;5.75;;;0.20;;
38312;SDS011;24114;52.260;6.714;2023-08-21T10:18:37;2.88;;;0.63;;
38312;SDS011;24114;52.260;6.714;2023-08-21T10:21:11;2.50;;;0.35;;
38312;SDS011;24114;52.260;6.714;2023-08-21T10:23:41;1.20;;;0.10;;
38312;SDS011;24114;52.260;6.714;2023-08-21T10:26:12;1.00;;;0.10;;
38312;SDS011;24114;52.260;6.714;2023-08-21T10:31:29;1.65;;;0.20;;
38312;SDS011;24114;52.260;6.714;2023-08-21T10:34:01;2.25;;;0.30;;
38312;SDS011;24114;52.260;6.714;2023-08-21T10:36:37;1.35;;;0.10;;
38312;SDS011;24114;52.260;6.714;2023-08-21T10:39:13;2.45;;;0.20;;
38312;SDS011;24114;52.260;6.714;2023-08-21T10:41:52;1.90;;;0.40;;
38312;SDS011;24114;52.260;6.714;2023-08-21T10:44:33;2.05;;;0.10;;
38312;SDS011;24114;52.260;6.714;2023-08-21T10:47:14;1.63;;;0.10;;
38312;SDS011;24114;52.260;6.714;2023-08-21T10:49:43;1.03;;;0.10;;
38312;SDS011;24114;52.260;6.714;2023-08-21T10:52:12;1.17;;;0.10;;
38312;SDS011;24114;52.260;6.714;2023-08-21T10:54:46;1.35;;;0.10;;
38312;SDS011;24114;52.260;6.714;2023-08-21T10:57:14;2.67;;;0.40;;
38312;SDS011;24114;52.260;6.714;2023-08-21T10:59:49;1.23;;;0.20;;
38312;SDS011;24114;52.260;6.714;2023-08-21T11:02:20;1.50;;;0.10;;
38312;SDS011;24114;52.260;6.714;2023-08-21T11:04:49;2.25;;;0.10;;
38312;SDS011;24114;52.260;6.714;2023-08-21T11:07:17;10.70;;;0.90;;
38312;SDS011;24114;52.260;6.714;2023-08-21T11:09:47;1.50;;;0.10;;
38312;SDS011;24114;52.260;6.714;2023-08-21T11:12:15;1.00;;;0.00;;
38312;SDS011;24114;52.260;6.714;2023-08-21T11:14:44;2.85;;;0.20;;
38312;SDS011;24114;52.260;6.714;2023-08-21T11:17:12;0.93;;;0.10;;
38312;SDS011;24114;52.260;6.714;2023-08-21T11:19:41;1.08;;;0.10;;
38312;SDS011;24114;52.260;6.714;2023-08-21T11:22:10;6.25;;;0.30;;
38312;SDS011;24114;52.260;6.714;2023-08-21T11:24:39;2.45;;;0.40;;
38312;SDS011;24114;52.260;6.714;2023-08-21T11:27:10;2.20;;;0.10;;
38312;SDS011;24114;52.260;6.714;2023-08-21T11:29:39;2.20;;;0.17;;
38312;SDS011;24114;52.260;6.714;2023-08-21T11:32:08;1.60;;;0.20;;
38312;SDS011;24114;52.260;6.714;2023-08-21T11:34:43;3.55;;;0.30;;
38312;SDS011;24114;52.260;6.714;2023-08-21T11:37:16;1.33;;;0.10;;
38312;SDS011;24114;52.260;6.714;2023-08-21T11:39:44;2.03;;;0.20;;
38312;SDS011;24114;52.260;6.714;2023-08-21T11:42:15;2.67;;;0.30;;
38312;SDS011;24114;52.260;6.714;2023-08-21T11:44:44;1.58;;;0.20;;
38312;SDS011;24114;52.260;6.714;2023-08-21T11:47:14;2.03;;;0.20;;
38312;SDS011;24114;52.260;6.714;2023-08-21T11:49:43;6.28;;;0.30;;
38312;SDS011;24114;52.260;6.714;2023-08-21T11:52:13;2.58;;;0.30;;
38312;SDS011;24114;52.260;6.714;2023-08-21T11:54:41;2.75;;;0.40;;
38312;SDS011;24114;52.260;6.714;2023-08-21T11:57:12;1.92;;;0.45;;
38312;SDS011;24114;52.260;6.714;2023-08-21T11:59:43;2.47;;;0.20;;
38312;SDS011;24114;52.260;6.714;2023-08-21T12:02:16;2.78;;;0.30;;
38312;SDS011;24114;52.260;6.714;2023-08-21T12:04:45;3.55;;;0.22;;
38312;SDS011;24114;52.260;6.714;2023-08-21T12:07:19;2.83;;;0.28;;
38312;SDS011;24114;52.260;6.714;2023-08-21T12:09:47;8.13;;;0.43;;
38312;SDS011;24114;52.260;6.714;2023-08-21T12:12:15;2.70;;;0.20;;
38312;SDS011;24114;52.260;6.714;2023-08-21T12:14:45;1.80;;;0.32;;
38312;SDS011;24114;52.260;6.714;2023-08-21T12:17:13;2.33;;;0.20;;
38312;SDS011;24114;52.260;6.714;2023-08-21T12:20:29;3.70;;;0.20;;
38312;SDS011;24114;52.260;6.714;2023-08-21T12:22:57;1.85;;;0.32;;
38312;SDS011;24114;52.260;6.714;2023-08-21T12:25:24;2.03;;;0.30;;
38312;SDS011;24114;52.260;6.714;2023-08-21T12:27:52;1.83;;;0.20;;
38312;SDS011;24114;52.260;6.714;2023-08-21T12:30:34;1.25;;;0.20;;
38312;SDS011;24114;52.260;6.714;2023-08-21T12:33:02;2.25;;;0.30;;
38312;SDS011;24114;52.260;6.714;2023-08-21T12:35:49;1.90;;;0.30;;
38312;SDS011;24114;52.260;6.714;2023-08-21T12:38:17;1.63;;;0.30;;
38312;SDS011;24114;52.260;6.714;2023-08-21T12:40:46;1.50;;;0.30;;
38312;SDS011;24114;52.260;6.714;2023-08-21T12:43:14;2.40;;;0.43;;
38312;SDS011;24114;52.260;6.714;2023-08-21T12:45:42;3.35;;;0.40;;
38312;SDS011;24114;52.260;6.714;2023-08-21T12:48:10;3.28;;;0.40;;
38312;SDS011;24114;52.260;6.714;2023-08-21T12:50:38;1.55;;;0.40;;
38312;SDS011;24114;52.260;6.714;2023-08-21T12:53:07;2.35;;;0.40;;
38312;SDS011;24114;52.260;6.714;2023-08-21T12:55:35;1.88;;;0.40;;
38312;SDS011;24114;52.260;6.714;2023-08-21T12:59:51;4.03;;;0.30;;
38312;SDS011;24114;52.260;6.714;2023-08-21T13:02:19;2.00;;;0.20;;
38312;SDS011;24114;52.260;6.714;2023-08-21T13:04:49;2.78;;;0.20;;
38312;SDS011;24114;52.260;6.714;2023-08-21T13:07:17;1.23;;;0.20;;
38312;SDS011;24114;52.260;6.714;2023-08-21T13:09:45;1.77;;;0.22;;
38312;SDS011;24114;52.260;6.714;2023-08-21T13:12:12;1.90;;;0.22;;
38312;SDS011;24114;52.260;6.714;2023-08-21T13:14:40;1.27;;;0.20;;
38312;SDS011;24114;52.260;6.714;2023-08-21T13:17:09;3.40;;;0.50;;
38312;SDS011;24114;52.260;6.714;2023-08-21T13:19:37;2.55;;;0.50;;
38312;SDS011;24114;52.260;6.714;2023-08-21T13:22:05;2.30;;;0.23;;
38312;SDS011;24114;52.260;6.714;2023-08-21T13:24:33;2.47;;;0.45;;
38312;SDS011;24114;52.260;6.714;2023-08-21T13:27:01;2.13;;;0.20;;
38312;SDS011;24114;52.260;6.714;2023-08-21T13:29:29;1.30;;;0.20;;
38312;SDS011;24114;52.260;6.714;2023-08-21T13:31:56;2.42;;;0.50;;
38312;SDS011;24114;52.260;6.714;2023-08-21T13:34:26;1.73;;;0.47;;
38312;SDS011;24114;52.260;6.714;2023-08-21T13:36:53;2.65;;;0.40;;
38312;SDS011;24114;52.260;6.714;2023-08-21T13:39:21;1.38;;;0.30;;
38312;SDS011;24114;52.260;6.714;2023-08-21T13:41:49;1.80;;;0.22;;
38312;SDS011;24114;52.260;6.714;2023-08-21T13:51:46;2.70;;;0.30;;
38312;SDS011;24114;52.260;6.714;2023-08-21T13:54:13;1.33;;;0.30;;
38312;SDS011;24114;52.260;6.714;2023-08-21T13:56:41;2.50;;;0.32;;
38312;SDS011;24114;52.260;6.714;2023-08-21T13:59:09;2.88;;;0.70;;
38312;SDS011;24114;52.260;6.714;2023-08-21T14:01:37;2.15;;;0.57;;
38312;SDS011;24114;52.260;6.714;2023-08-21T14:04:05;2.10;;;0.52;;
38312;SDS011;24114;52.260;6.714;2023-08-21T14:06:33;2.92;;;0.40;;
38312;SDS011;24114;52.260;6.714;2023-08-21T14:09:02;3.63;;;0.80;;
38312;SDS011;24114;52.260;6.714;2023-08-21T14:11:30;1.48;;;0.40;;
38312;SDS011;24114;52.260;6.714;2023-08-21T14:13:58;2.05;;;0.68;;
38312;SDS011;24114;52.260;6.714;2023-08-21T14:16:26;3.25;;;0.68;;
38312;SDS011;24114;52.260;6.714;2023-08-21T14:18:54;2.45;;;0.80;;
38312;SDS011;24114;52.260;6.714;2023-08-21T14:21:21;4.28;;;0.60;;
38312;SDS011;24114;52.260;6.714;2023-08-21T14:23:49;1.90;;;0.40;;
38312;SDS011;24114;52.260;6.714;2023-08-21T14:26:18;1.98;;;0.52;;
38312;SDS011;24114;52.260;6.714;2023-08-21T14:28:46;1.98;;;0.30;;
38312;SDS011;24114;52.260;6.714;2023-08-21T14:31:16;2.65;;;0.70;;
38312;SDS011;24114;52.260;6.714;2023-08-21T14:33:44;2.28;;;0.50;;
38312;SDS011;24114;52.260;6.714;2023-08-21T14:36:12;2.17;;;0.38;;
38312;SDS011;24114;52.260;6.714;2023-08-21T14:38:40;3.22;;;0.50;;
38312;SDS011;24114;52.260;6.714;2023-08-21T14:41:08;2.30;;;0.50;;
38312;SDS011;24114;52.260;6.714;2023-08-21T14:43:37;2.30;;;0.53;;
38312;SDS011;24114;52.260;6.714;2023-08-21T14:46:05;2.92;;;0.30;;
38312;SDS011;24114;52.260;6.714;2023-08-21T14:48:33;1.80;;;0.60;;
38312;SDS011;24114;52.260;6.714;2023-08-21T14:51:00;3.30;;;0.40;;
38312;SDS011;24114;52.260;6.714;2023-08-21T14:53:28;1.73;;;0.70;;
38312;SDS011;24114;52.260;6.714;2023-08-21T14:55:56;1.47;;;0.40;;
38312;SDS011;24114;52.260;6.714;2023-08-21T14:58:24;2.90;;;0.40;;
38312;SDS011;24114;52.260;6.714;2023-08-21T15:00:54;2.83;;;0.40;;
38312;SDS011;24114;52.260;6.714;2023-08-21T15:03:22;2.08;;;0.45;;
38312;SDS011;24114;52.260;6.714;2023-08-21T15:05:50;1.83;;;0.40;;
38312;SDS011;24114;52.260;6.714;2023-08-21T15:08:18;2.13;;;0.43;;
38312;SDS011;24114;52.260;6.714;2023-08-21T15:10:46;1.73;;;0.40;;